map of DLN home
DLN - Airport
Location
City:  Dillon, Montana, United States
ICAO:KDLN
IATA:DLN
FAA LID:DLN

Details
Type:Airport (Airfield)
Use:Public/Civil
Latitude:4515'19"N (45.255361)
Longitude:11233'09"W (-112.552499)
Datum:WGS 1984
Elevation:5244 ft (1598 m)
Variation:12.36E (WMM2015v2 magnetic declination)
-0.09 annual change
Runways:2
Longest:6501 × 75 ft (1982 × 23 m), paved

Time
Time Zone:UTC-7 (DST-6)
Local Time:

Weather
METAR:KDLN 041353Z AUTO 07010KT 4SM BR OVC021 M22/M24 A2958 RMK AO2 SNB1259E12 SLP135 P0000 T12171239

Related Locations
Nearby:
Farthest:RRG: 10657 mi / 17152 km
Plaine Corail [Sir Gatan Duval Airport (Plaine Corail Airport)], Rodrigues Island, MU

Find:

   beyond  
but within

Other Information
Maps:
NOTAMs:
Links:
Sources:

  
  • flag of United States
  • flag of Montana
  

Sectional Chart

Flight Planning
at skyvector.com

Satellite Image

Google Maps Satellite view

 

Copyright © 2004-2019 Karl L. Swartz. All rights reserved.
The Great Circle Mapper name and logo are trademarks of the Great Circle Mapper.
All other trademarks mentioned herein belong to their respective owners.
Please see credits for attibutions and further copyright information.

  Follow gcmap on Facebook Follow gcmap on Twitter GCmap on LinkedIn

hCard Microformat

Geo Microformat